createdAt,value
2023-03-07T00:00:55.166Z,11.90
2023-03-07T00:03:28.951Z,12.17
2023-03-07T00:06:05.876Z,12.32
2023-03-07T00:08:45.870Z,11.69
2023-03-07T00:11:19.814Z,12.01
2023-03-07T00:24:33.862Z,11.77
2023-03-07T00:27:14.124Z,12.25
2023-03-07T00:29:48.661Z,12.20
2023-03-07T00:32:21.894Z,12.17
2023-03-07T00:34:56.341Z,12.10
2023-03-07T00:37:29.874Z,11.70
2023-03-07T00:40:07.477Z,12.27
2023-03-07T00:53:02.842Z,11.96
2023-03-07T00:55:44.900Z,11.71
2023-03-07T00:58:18.712Z,11.74
2023-03-07T01:00:51.907Z,11.82
2023-03-07T01:03:27.029Z,12.17
2023-03-07T01:06:01.861Z,12.41
2023-03-07T01:19:17.161Z,11.77
2023-03-07T01:21:50.908Z,11.44
2023-03-07T01:24:23.868Z,11.59
2023-03-07T01:26:57.118Z,11.49
2023-03-07T01:29:33.297Z,11.36
2023-03-07T01:32:06.608Z,11.34
2023-03-07T01:45:13.834Z,10.68
2023-03-07T01:47:54.897Z,11.17
2023-03-07T01:50:29.181Z,11.35
2023-03-07T01:53:06.844Z,11.45
2023-03-07T01:55:40.394Z,11.20
2023-03-07T01:58:21.849Z,11.19
2023-03-07T02:00:57.196Z,11.08
2023-03-07T02:13:45.845Z,10.78
2023-03-07T02:16:27.847Z,11.31
2023-03-07T02:19:01.502Z,11.56
2023-03-07T02:21:46.874Z,11.76
2023-03-07T02:24:32.028Z,11.60
2023-03-07T02:27:13.867Z,11.40
2023-03-07T02:40:29.873Z,12.25
2023-03-07T02:43:06.492Z,12.89
2023-03-07T02:45:46.870Z,12.82
2023-03-07T02:48:20.228Z,12.94
2023-03-07T02:50:54.858Z,13.24
2023-03-07T03:04:51.896Z,14.45
2023-03-07T03:07:27.201Z,14.32
2023-03-07T03:10:00.862Z,14.82
2023-03-07T03:12:34.351Z,15.79
2023-03-07T03:15:07.861Z,15.85
2023-03-07T03:17:41.980Z,15.89
2023-03-07T03:20:16.872Z,16.07
2023-03-07T03:33:30.862Z,17.56
2023-03-07T03:36:08.839Z,17.84
2023-03-07T03:38:52.529Z,17.74
2023-03-07T03:41:26.833Z,18.66
2023-03-07T03:44:00.856Z,18.16
2023-03-07T03:46:35.239Z,19.06
2023-03-07T03:59:25.828Z,19.37
2023-03-07T04:02:05.960Z,18.82
2023-03-07T04:04:39.246Z,19.08
2023-03-07T04:07:12.857Z,19.24
2023-03-07T04:09:46.129Z,19.28
2023-03-07T04:12:19.839Z,18.98
2023-03-07T04:25:31.914Z,19.55
2023-03-07T04:28:05.384Z,19.63
2023-03-07T04:30:39.860Z,19.77
2023-03-07T04:33:13.104Z,20.18
2023-03-07T04:35:46.861Z,19.55
2023-03-07T04:38:20.250Z,19.75
2023-03-07T04:40:57.474Z,19.82
2023-03-07T04:54:07.836Z,20.66
2023-03-07T04:56:43.764Z,21.10
2023-03-07T04:59:18.927Z,22.27
2023-03-07T05:01:54.141Z,21.48
2023-03-07T05:04:27.910Z,20.71
2023-03-07T05:07:01.153Z,21.62
2023-03-07T05:19:51.796Z,23.42
2023-03-07T05:22:31.852Z,24.28
2023-03-07T05:25:06.866Z,23.97
2023-03-07T05:27:40.813Z,23.85
2023-03-07T05:30:15.250Z,23.85
2023-03-07T05:46:24.145Z,22.53
2023-03-07T05:48:59.373Z,22.62
2023-03-07T05:51:39.828Z,22.48
2023-03-07T05:54:13.243Z,22.79
2023-03-07T05:56:46.815Z,22.36
2023-03-07T05:59:20.544Z,22.49
2023-03-07T06:01:57.836Z,22.32
2023-03-07T06:12:13.781Z,22.12
2023-03-07T06:14:53.835Z,21.82
2023-03-07T06:17:29.289Z,21.25
2023-03-07T06:20:02.814Z,20.85
2023-03-07T06:22:36.760Z,20.58
2023-03-07T06:25:16.806Z,19.25
2023-03-07T06:27:50.198Z,19.25
2023-03-07T06:41:03.794Z,17.62
2023-03-07T06:43:44.827Z,17.00
2023-03-07T06:46:18.700Z,17.09
2023-03-07T06:48:52.074Z,17.98
2023-03-07T06:51:25.648Z,17.10
2023-03-07T07:07:43.829Z,17.50
2023-03-07T07:10:17.644Z,17.01
2023-03-07T07:12:50.827Z,17.45
2023-03-07T07:15:25.133Z,16.89
2023-03-07T07:17:59.789Z,17.05
2023-03-07T07:20:34.469Z,16.69
2023-03-07T07:33:25.816Z,17.23
2023-03-07T07:36:05.789Z,17.41
2023-03-07T07:38:39.425Z,17.72
2023-03-07T07:41:12.828Z,17.68
2023-03-07T07:43:47.455Z,17.85
2023-03-07T07:46:30.806Z,17.92
2023-03-07T07:59:44.813Z,16.95
2023-03-07T08:02:18.289Z,16.96
2023-03-07T08:04:51.808Z,17.34
2023-03-07T08:07:25.236Z,17.45
2023-03-07T08:10:01.235Z,17.23
2023-03-07T08:12:34.098Z,17.21
2023-03-07T08:26:03.817Z,18.00
2023-03-07T08:28:46.812Z,17.69
2023-03-07T08:31:23.193Z,17.85
2023-03-07T08:34:03.825Z,17.44
2023-03-07T08:36:37.440Z,17.24
2023-03-07T08:39:10.816Z,17.07
2023-03-07T08:41:46.092Z,17.22
2023-03-07T08:54:34.760Z,17.30
2023-03-07T08:57:17.645Z,17.49
2023-03-07T08:59:51.128Z,17.08
2023-03-07T09:02:24.815Z,17.38
2023-03-07T09:04:58.094Z,17.26
2023-03-07T09:07:31.806Z,17.66
2023-03-07T09:20:44.786Z,16.85
2023-03-07T09:23:18.007Z,16.49
2023-03-07T09:25:51.782Z,16.94
2023-03-07T09:28:25.179Z,16.89
2023-03-07T09:30:58.792Z,17.07
2023-03-07T09:48:04.786Z,16.43
2023-03-07T09:50:54.775Z,16.49
2023-03-07T09:53:38.800Z,16.29
2023-03-07T09:56:25.794Z,15.99
2023-03-07T09:59:22.079Z,15.44
2023-03-07T10:02:15.622Z,15.75
2023-03-07T10:15:47.828Z,14.81
2023-03-07T10:18:53.639Z,14.60
2023-03-07T10:21:45.800Z,14.07
2023-03-07T10:24:52.559Z,14.05
2023-03-07T10:27:35.780Z,14.01
2023-03-07T10:40:56.802Z,13.87
2023-03-07T10:43:33.090Z,14.09
2023-03-07T10:46:26.943Z,13.54
2023-03-07T10:49:12.893Z,13.73
2023-03-07T10:52:04.782Z,13.30
2023-03-07T11:08:42.733Z,12.74
2023-03-07T11:11:30.765Z,12.51
2023-03-07T11:14:07.138Z,12.57
2023-03-07T11:16:47.758Z,12.31
2023-03-07T11:19:40.125Z,12.08
2023-03-07T11:22:30.766Z,12.03
2023-03-07T11:38:54.793Z,11.09
2023-03-07T11:41:37.773Z,10.98
2023-03-07T11:44:34.208Z,10.49
2023-03-07T11:47:38.764Z,10.27
2023-03-07T12:01:12.208Z,10.58
2023-03-07T12:04:24.957Z,10.70
2023-03-07T12:07:24.443Z,10.55
2023-03-07T12:10:17.034Z,10.68
2023-03-07T12:13:15.779Z,11.23
2023-03-07T12:16:08.916Z,11.50
2023-03-07T12:29:10.723Z,11.55
2023-03-07T12:31:58.875Z,12.14
2023-03-07T12:34:40.839Z,12.02
2023-03-07T12:37:29.757Z,12.04
2023-03-07T12:40:12.803Z,12.01
2023-03-07T12:43:02.754Z,12.02
2023-03-07T12:53:39.725Z,11.97
2023-03-07T12:56:26.753Z,11.93
2023-03-07T12:59:10.480Z,11.86
2023-03-07T13:01:55.734Z,11.81
2023-03-07T13:04:34.976Z,11.01
2023-03-07T13:07:19.746Z,11.26
2023-03-07T13:21:16.741Z,10.46
2023-03-07T13:24:24.929Z,10.45
2023-03-07T13:27:05.751Z,10.28
2023-03-07T13:30:18.081Z,10.10
2023-03-07T13:33:08.734Z,10.40
2023-03-07T13:35:55.888Z,10.41
2023-03-07T13:49:07.691Z,8.96
2023-03-07T13:52:27.737Z,9.35
2023-03-07T13:55:18.876Z,9.37
2023-03-07T13:58:01.743Z,8.80
2023-03-07T14:00:46.749Z,8.85
2023-03-07T14:14:27.697Z,8.34
2023-03-07T14:20:17.958Z,8.11
2023-03-07T14:23:19.754Z,8.02
2023-03-07T14:26:08.975Z,8.23
2023-03-07T14:42:41.732Z,7.17
2023-03-07T14:45:23.867Z,7.69
2023-03-07T14:48:36.728Z,7.23
2023-03-07T14:51:15.836Z,6.91
2023-03-07T14:53:56.725Z,7.07
2023-03-07T14:56:31.855Z,7.07
2023-03-07T15:09:21.701Z,7.63
2023-03-07T15:12:11.705Z,7.54
2023-03-07T15:14:50.076Z,7.30
2023-03-07T15:17:34.803Z,7.41
2023-03-07T15:20:23.437Z,7.18
2023-03-07T15:23:10.865Z,7.18
2023-03-07T15:36:32.748Z,6.96
2023-03-07T15:39:28.148Z,5.90
2023-03-07T15:42:12.721Z,5.92
2023-03-07T15:44:53.594Z,6.01
2023-03-07T15:47:36.722Z,6.30
2023-03-07T16:00:53.737Z,5.10
2023-03-07T16:03:29.473Z,5.45
2023-03-07T16:06:05.725Z,5.30
2023-03-07T16:08:39.141Z,5.83
2023-03-07T16:11:17.699Z,5.70
2023-03-07T16:13:51.121Z,6.01
2023-03-07T16:16:30.777Z,5.61
2023-03-07T16:29:40.731Z,4.43
2023-03-07T16:32:18.775Z,4.30
2023-03-07T16:35:20.588Z,4.09
2023-03-07T16:37:54.751Z,4.24
2023-03-07T16:40:29.607Z,3.86
2023-03-07T16:43:02.852Z,3.98
2023-03-07T16:55:53.534Z,3.46
2023-03-07T16:58:37.566Z,3.74
2023-03-07T17:01:13.496Z,3.61
2023-03-07T17:03:47.550Z,3.71
2023-03-07T17:06:38.420Z,3.84
2023-03-07T17:23:01.550Z,4.86
2023-03-07T17:25:34.806Z,5.26
2023-03-07T17:28:14.634Z,5.38
2023-03-07T17:30:47.835Z,5.66
2023-03-07T17:33:21.577Z,5.85
2023-03-07T17:35:54.799Z,6.08
2023-03-07T17:48:44.566Z,6.61
2023-03-07T17:51:24.544Z,6.86
2023-03-07T17:53:58.234Z,6.55
2023-03-07T17:56:31.555Z,6.64
2023-03-07T17:59:05.542Z,6.60
2023-03-07T18:01:49.138Z,6.95
2023-03-07T18:15:01.536Z,6.14
2023-03-07T18:17:46.909Z,5.77
2023-03-07T18:20:27.557Z,5.31
2023-03-07T18:23:00.798Z,4.60
2023-03-07T18:25:34.572Z,4.42
2023-03-07T18:28:07.780Z,3.97
2023-03-07T18:41:29.506Z,3.45
2023-03-07T18:44:09.558Z,2.88
2023-03-07T18:46:42.886Z,2.57
2023-03-07T18:49:16.533Z,2.32
2023-03-07T18:51:49.890Z,2.44
2023-03-07T18:54:23.533Z,2.28
2023-03-07T18:56:58.704Z,2.36
2023-03-07T19:09:48.381Z,1.60
2023-03-07T19:12:30.544Z,1.70
2023-03-07T19:15:05.567Z,1.85
2023-03-07T19:17:44.576Z,1.54
2023-03-07T19:20:18.309Z,1.87
2023-03-07T19:22:51.512Z,1.77
2023-03-07T19:36:13.501Z,1.54
2023-03-07T19:38:48.775Z,1.48
2023-03-07T19:41:25.521Z,1.28
2023-03-07T19:44:00.729Z,1.30
2023-03-07T19:46:34.528Z,1.05
2023-03-07T20:03:11.508Z,0.96
2023-03-07T20:05:54.564Z,0.95
2023-03-07T20:08:28.005Z,0.93
2023-03-07T20:11:09.318Z,0.89
2023-03-07T20:13:44.779Z,1.05
2023-03-07T20:16:20.429Z,1.15
2023-03-07T20:29:32.550Z,1.12
2023-03-07T20:32:05.852Z,1.02
2023-03-07T20:34:39.524Z,1.02
2023-03-07T20:37:12.894Z,1.12
2023-03-07T20:39:46.856Z,0.99
2023-03-07T20:42:19.771Z,1.04
2023-03-07T20:55:15.507Z,0.85
2023-03-07T20:57:55.503Z,0.96
2023-03-07T21:00:28.768Z,1.08
2023-03-07T21:03:05.908Z,1.11
2023-03-07T21:05:39.916Z,1.08
2023-03-07T21:08:13.533Z,1.14
2023-03-07T21:10:58.388Z,1.42
2023-03-07T21:23:54.482Z,1.96
2023-03-07T21:26:38.506Z,2.44
2023-03-07T21:29:11.805Z,2.47
2023-03-07T21:31:45.517Z,2.47
2023-03-07T21:34:18.787Z,2.57
2023-03-07T21:36:52.513Z,2.62
2023-03-07T21:50:08.492Z,2.38
2023-03-07T21:52:41.728Z,2.31
2023-03-07T21:55:16.508Z,2.15
2023-03-07T21:57:49.832Z,2.44
2023-03-07T22:00:24.505Z,2.36
2023-03-07T22:02:58.418Z,2.33
2023-03-07T22:15:48.465Z,2.29
2023-03-07T22:18:28.501Z,2.19
2023-03-07T22:21:06.604Z,2.38
2023-03-07T22:23:46.487Z,2.31
2023-03-07T22:26:19.733Z,2.26
2023-03-07T22:28:53.480Z,2.28
2023-03-07T22:31:29.004Z,2.27
2023-03-07T22:44:17.445Z,2.15
2023-03-07T22:47:00.772Z,2.05
2023-03-07T22:49:33.896Z,2.09
2023-03-07T22:52:07.516Z,1.89
2023-03-07T22:54:40.855Z,2.08
2023-03-07T22:57:14.467Z,2.17
2023-03-07T23:10:26.466Z,2.54
2023-03-07T23:12:59.727Z,2.64
2023-03-07T23:15:33.530Z,2.47
2023-03-07T23:18:09.221Z,2.60
2023-03-07T23:20:43.493Z,2.87
2023-03-07T23:23:16.751Z,3.07
2023-03-07T23:36:07.461Z,3.15
2023-03-07T23:38:47.483Z,3.35
2023-03-07T23:41:20.881Z,3.07
2023-03-07T23:43:57.494Z,2.86
2023-03-07T23:46:31.461Z,2.80
2023-03-07T23:49:06.130Z,2.61
2023-03-07T23:51:41.678Z,2.19
